| time (UTC) | temp C | wind direction | speed KPH | gust KPH | rain 1hr cm | rain 24hr cm | rain mn cm | humidity % | barometer mb |
| 20260506150944 | 12 | 175 | 4.8 | 11.3 | 0.00 | 0.00 | 0.00 | 50 | 1018.9 |
| 20260506150445 | 12 | 156 | 4.8 | 9.7 | 0.00 | 0.00 | 0.00 | 51 | 1018.9 |
| 20260506145947 | 12 | 127 | 4.8 | 9.7 | 0.00 | 0.00 | 0.00 | 51 | 1018.9 |
| 20260506145446 | 11 | 167 | 4.8 | 8.0 | 0.00 | 0.00 | 0.00 | 53 | 1018.9 |
| 20260506144947 | 11 | 167 | 4.8 | 8.0 | 0.00 | 0.00 | 0.00 | 55 | 1018.8 |
| 20260506144447 | 11 | 167 | 6.4 | 9.7 | 0.00 | 0.00 | 0.00 | 56 | 1018.9 |
| 20260506143941 | 10 | 173 | 4.8 | 9.7 | 0.00 | 0.00 | 0.00 | 58 | 1018.9 |
| 20260506143434 | 10 | 170 | 3.2 | 6.4 | 0.00 | 0.00 | 0.00 | 59 | 1018.9 |
| 20260506142928 | 9 | 140 | 3.2 | 9.7 | 0.00 | 0.00 | 0.00 | 60 | 1018.8 |
| 20260506142417 | 8 | 140 | 4.8 | 9.7 | 0.00 | 0.00 | 0.00 | 61 | 1018.9 |
| 20260506141911 | 8 | 140 | 6.4 | 9.7 | 0.00 | 0.00 | 0.00 | 61 | 1018.8 |
| 20260506141406 | 8 | 156 | 4.8 | 9.7 | 0.00 | 0.00 | 0.00 | 62 | 1018.8 |
| 20260506140906 | 7 | 156 | 3.2 | 6.4 | 0.00 | 0.03 | 0.00 | 63 | 1018.8 |
| 20260506140407 | 7 | 37 | 1.6 | 3.2 | 0.00 | 0.05 | 0.00 | 64 | 1018.9 |
| 20260506135905 | 7 | 10 | 0.0 | 0.0 | 0.00 | 0.08 | 0.00 | 65 | 1018.8 |
| 20260506135405 | 6 | 10 | 0.0 | 1.6 | 0.00 | 0.08 | 0.00 | 65 | 1018.7 |
| 20260506134907 | 6 | 10 | 1.6 | 3.2 | 0.00 | 0.10 | 0.00 | 67 | 1018.7 |
| 20260506134408 | 6 | 10 | 1.6 | 3.2 | 0.00 | 0.10 | 0.00 | 68 | 1018.7 |
| 20260506133907 | 6 | 10 | 3.2 | 6.4 | 0.00 | 0.15 | 0.00 | 69 | 1018.6 |
| 20260506133407 | 6 | 10 | 4.8 | 6.4 | 0.00 | 0.18 | 0.00 | 70 | 1018.5 |
| 20260506132907 | 5 | 10 | 4.8 | 6.4 | 0.00 | 0.18 | 0.00 | 72 | 1018.6 |
| 20260506132634 | 5 | 343 | 4.8 | 6.4 | 0.00 | 0.18 | 0.00 | 74 | 1018.6 |
| 20260506131905 | 5 | 327 | 4.8 | 6.4 | 0.00 | 0.18 | 0.00 | 75 | 1018.5 |
| 20260506131634 | 5 | 344 | 4.8 | 6.4 | 0.00 | 0.18 | 0.00 | 74 | 1018.4 |
| 20260506130905 | 5 | 321 | 3.2 | 4.8 | 0.00 | 0.18 | 0.00 | 74 | 1018.4 |
| 20260506130403 | 5 | 321 | 3.2 | 4.8 | 0.00 | 0.18 | 0.00 | 74 | 1018.4 |
| 20260506125905 | 5 | 321 | 3.2 | 4.8 | 0.00 | 0.18 | 0.00 | 73 | 1018.2 |
| 20260506125404 | 6 | 327 | 3.2 | 6.4 | 0.00 | 0.18 | 0.00 | 72 | 1018.2 |
| 20260506124903 | 6 | 333 | 4.8 | 8.0 | 0.00 | 0.18 | 0.00 | 71 | 1018.1 |
| 20260506124404 | 6 | 350 | 4.8 | 9.7 | 0.00 | 0.18 | 0.00 | 69 | 1018.1 |
| 20260506123905 | 5 | 336 | 6.4 | 9.7 | 0.00 | 0.18 | 0.00 | 71 | 1018.1 |
| 20260506123405 | 5 | 342 | 6.4 | 9.7 | 0.00 | 0.18 | 0.00 | 73 | 1018.1 |
| 20260506122904 | 5 | 341 | 6.4 | 8.0 | 0.00 | 0.18 | 0.00 | 74 | 1018.0 |
| 20260506122404 | 5 | 343 | 6.4 | 8.0 | 0.00 | 0.18 | 0.00 | 74 | 1018.0 |
| 20260506121904 | 5 | 343 | 4.8 | 8.0 | 0.00 | 0.18 | 0.00 | 74 | 1017.9 |
| 20260506121404 | 5 | 337 | 3.2 | 6.4 | 0.00 | 0.18 | 0.00 | 75 | 1017.8 |
| 20260506120905 | 5 | 346 | 3.2 | 4.8 | 0.00 | 0.18 | 0.00 | 74 | 1017.8 |
| 20260506120636 | 5 | 346 | 3.2 | 6.4 | 0.00 | 0.18 | 0.00 | 73 | 1017.8 |
| 20260506115902 | 6 | 346 | 4.8 | 6.4 | 0.00 | 0.18 | 0.00 | 72 | 1017.8 |
| 20260506115405 | 6 | 325 | 4.8 | 8.0 | 0.00 | 0.18 | 0.00 | 70 | 1017.7 |
| 20260506114902 | 6 | 338 | 4.8 | 8.0 | 0.00 | 0.18 | 0.00 | 71 | 1017.7 |
| 20260506114402 | 6 | 329 | 6.4 | 12.9 | 0.00 | 0.18 | 0.00 | 70 | 1017.7 |
| 20260506113902 | 6 | 321 | 6.4 | 12.9 | 0.00 | 0.18 | 0.00 | 71 | 1017.8 |
| 20260506113632 | 6 | 337 | 6.4 | 11.3 | 0.00 | 0.18 | 0.00 | 72 | 1017.8 |
| 20260506112902 | 6 | 1 | 4.8 | 6.4 | 0.00 | 0.18 | 0.00 | 73 | 1017.8 |
| 20260506112631 | 6 | 328 | 4.8 | 6.4 | 0.00 | 0.18 | 0.00 | 73 | 1017.8 |
| 20260506111859 | 6 | 345 | 4.8 | 8.0 | 0.00 | 0.18 | 0.00 | 73 | 1017.7 |
| 20260506111353 | 6 | 357 | 4.8 | 8.0 | 0.00 | 0.18 | 0.00 | 73 | 1017.7 |
| 20260506110847 | 6 | 318 | 4.8 | 8.0 | 0.00 | 0.18 | 0.00 | 73 | 1017.7 |
| 20260506110343 | 6 | 298 | 4.8 | 8.0 | 0.00 | 0.18 | 0.00 | 71 | 1017.4 |
| 20260506110336 | 6 | 326 | 4.8 | 8.0 | 0.00 | 0.18 | 0.00 | 72 | 1017.5 |
| 20260506105333 | 6 | 352 | 4.8 | 6.4 | 0.00 | 0.18 | 0.00 | 71 | 1017.5 |
| 20260506104833 | 6 | 347 | 4.8 | 8.0 | 0.00 | 0.18 | 0.00 | 71 | 1017.5 |
| 20260506104335 | 6 | 338 | 4.8 | 8.0 | 0.00 | 0.18 | 0.00 | 71 | 1017.5 |
| 20260506103832 | 6 | 352 | 4.8 | 6.4 | 0.00 | 0.18 | 0.00 | 71 | 1017.4 |
| 20260506103332 | 6 | 335 | 4.8 | 6.4 | 0.00 | 0.18 | 0.00 | 70 | 1017.5 |
| 20260506102831 | 7 | 351 | 4.8 | 8.0 | 0.00 | 0.18 | 0.00 | 70 | 1017.5 |
| 20260506102331 | 7 | 352 | 4.8 | 8.0 | 0.00 | 0.18 | 0.00 | 69 | 1017.5 |
| 20260506101832 | 7 | 7 | 4.8 | 8.0 | 0.00 | 0.18 | 0.00 | 68 | 1017.4 |
| 20260506101600 | 7 | 354 | 6.4 | 8.0 | 0.00 | 0.18 | 0.00 | 68 | 1017.4 |
| 20260506100829 | 7 | 349 | 6.4 | 11.3 | 0.00 | 0.18 | 0.00 | 68 | 1017.5 |
| 20260506100332 | 7 | 348 | 8.0 | 12.9 | 0.00 | 0.18 | 0.00 | 67 | 1017.4 |
| 20260506095833 | 7 | 305 | 6.4 | 12.9 | 0.00 | 0.18 | 0.00 | 67 | 1017.4 |
| 20260506095605 | 8 | 330 | 8.0 | 12.9 | 0.00 | 0.18 | 0.00 | 66 | 1017.4 |
| 20260506094823 | 8 | 288 | 6.4 | 12.9 | 0.00 | 0.18 | 0.00 | 65 | 1017.3 |
| 20260506094316 | 8 | 358 | 4.8 | 6.4 | 0.00 | 0.18 | 0.00 | 65 | 1017.4 |
| 20260506093811 | 8 | 320 | 3.2 | 6.4 | 0.00 | 0.18 | 0.00 | 65 | 1017.4 |
| 20260506093300 | 8 | 351 | 4.8 | 9.7 | 0.00 | 0.18 | 0.00 | 65 | 1017.4 |
| 20260506092755 | 8 | 350 | 6.4 | 9.7 | 0.00 | 0.18 | 0.00 | 65 | 1017.3 |
| 20260506092249 | 8 | 341 | 6.4 | 11.3 | 0.00 | 0.18 | 0.00 | 65 | 1017.3 |
| 20260506091751 | 8 | 356 | 6.4 | 8.0 | 0.00 | 0.18 | 0.00 | 64 | 1017.4 |
| 20260506091739 | 8 | 337 | 6.4 | 11.3 | 0.00 | 0.18 | 0.00 | 64 | 1017.3 |
| 20260506091404 | 8 | 359 | 4.8 | 8.0 | 0.00 | 0.18 | 0.00 | 64 | 1017.3 |
| 20260506090217 | 8 | 6 | 4.8 | 8.0 | 0.00 | 0.18 | 0.00 | 63 | 1017.3 |
| 20260506085710 | 8 | 331 | 4.8 | 9.7 | 0.00 | 0.18 | 0.00 | 63 | 1017.3 |
| 20260506085205 | 8 | 297 | 4.8 | 12.9 | 0.00 | 0.18 | 0.00 | 63 | 1017.3 |
| 20260506084655 | 8 | 4 | 6.4 | 14.5 | 0.00 | 0.18 | 0.00 | 62 | 1017.3 |
| 20260506084419 | 8 | 1 | 6.4 | 14.5 | 0.00 | 0.18 | 0.00 | 62 | 1017.3 |
| 20260506083914 | 8 | 312 | 6.4 | 11.3 | 0.00 | 0.18 | 0.00 | 62 | 1017.4 |
| 20260506083132 | 8 | 329 | 4.8 | 11.3 | 0.00 | 0.18 | 0.00 | 61 | 1017.4 |
| 20260506082627 | 8 | 317 | 4.8 | 11.3 | 0.00 | 0.18 | 0.00 | 60 | 1017.5 |
| 20260506082121 | 9 | 312 | 6.4 | 12.9 | 0.00 | 0.18 | 0.00 | 59 | 1017.4 |
| 20260506081614 | 9 | 358 | 9.7 | 16.1 | 0.00 | 0.18 | 0.00 | 59 | 1017.5 |
| 20260506081606 | 9 | 335 | 11.3 | 16.1 | 0.00 | 0.18 | 0.00 | 59 | 1017.4 |
| 20260506080559 | 9 | 49 | 11.3 | 16.1 | 0.00 | 0.18 | 0.00 | 58 | 1017.5 |
| 20260506073515 | 9 | 329 | 4.8 | 9.7 | 0.00 | 0.18 | 0.00 | 59 | 1017.7 |
| 20260506073507 | 10 | 316 | 4.8 | 9.7 | 0.00 | 0.18 | 0.00 | 60 | 1017.7 |
| 20260506072459 | 10 | 339 | 6.4 | 14.5 | 0.00 | 0.18 | 0.00 | 59 | 1017.7 |
| 20260506072223 | 10 | 304 | 6.4 | 14.5 | 0.00 | 0.18 | 0.00 | 60 | 1017.5 |
| 20260506071442 | 10 | 343 | 6.4 | 11.3 | 0.00 | 0.18 | 0.00 | 59 | 1017.7 |
| 20260506071207 | 10 | 352 | 6.4 | 11.3 | 0.00 | 0.18 | 0.00 | 58 | 1017.4 |
| 20260506070438 | 11 | 344 | 6.4 | 12.9 | 0.00 | 0.18 | 0.00 | 58 | 1017.5 |
| 20260506070204 | 11 | 2 | 6.4 | 12.9 | 0.00 | 0.18 | 0.18 | 57 | 1017.5 |
| 20260506062435 | 11 | 325 | 6.4 | 12.9 | 0.00 | 0.18 | 0.18 | 56 | 1017.5 |
| 20260506061931 | 11 | 341 | 11.3 | 17.7 | 0.00 | 0.18 | 0.18 | 55 | 1017.5 |
| 20260506061431 | 11 | 338 | 11.3 | 19.3 | 0.00 | 0.18 | 0.18 | 55 | 1017.4 |
| 20260506060931 | 11 | 15 | 6.4 | 19.3 | 0.00 | 0.18 | 0.18 | 55 | 1017.4 |
| 20260506060432 | 11 | 16 | 6.4 | 16.1 | 0.00 | 0.18 | 0.18 | 54 | 1017.4 |
| 20260506060203 | 11 | 352 | 8.0 | 17.7 | 0.00 | 0.18 | 0.18 | 54 | 1017.4 |
| 20260506050923 | 12 | 250 | 6.4 | 17.7 | 0.00 | 0.18 | 0.18 | 50 | 1017.1 |
| 20260506050423 | 12 | 11 | 6.4 | 17.7 | 0.00 | 0.18 | 0.18 | 50 | 1017.1 |
| 20260506044924 | 13 | 308 | 9.7 | 19.3 | 0.00 | 0.18 | 0.18 | 49 | 1017.0 |
| 20260506044422 | 13 | 318 | 9.7 | 19.3 | 0.00 | 0.18 | 0.18 | 48 | 1016.8 |
| 20260506044146 | 13 | 349 | 9.7 | 20.9 | 0.00 | 0.18 | 0.18 | 47 | 1016.7 |
| 20260506043411 | 13 | 335 | 9.7 | 20.9 | 0.00 | 0.18 | 0.18 | 47 | 1016.8 |
| 20260506042912 | 13 | 129 | 11.3 | 27.4 | 0.00 | 0.18 | 0.18 | 46 | 1016.7 |
| 20260506042411 | 13 | 273 | 11.3 | 27.4 | 0.00 | 0.18 | 0.18 | 46 | 1016.7 |
| 20260506041910 | 13 | 322 | 9.7 | 25.7 | 0.00 | 0.18 | 0.18 | 46 | 1016.7 |
| 20260506041412 | 13 | 292 | 9.7 | 25.7 | 0.00 | 0.18 | 0.18 | 45 | 1016.6 |
| 20260506040911 | 13 | 339 | 8.0 | 25.7 | 0.00 | 0.18 | 0.18 | 45 | 1016.6 |
| 20260506040411 | 13 | 338 | 9.7 | 24.1 | 0.00 | 0.18 | 0.18 | 44 | 1016.6 |
| 20260506035910 | 13 | 245 | 12.9 | 24.1 | 0.00 | 0.18 | 0.18 | 44 | 1016.5 |
| 20260506035411 | 13 | 301 | 12.9 | 27.4 | 0.00 | 0.18 | 0.18 | 44 | 1016.6 |
| 20260506034910 | 14 | 283 | 11.3 | 27.4 | 0.00 | 0.18 | 0.18 | 43 | 1016.5 |
| 20260506034411 | 14 | 281 | 9.7 | 22.5 | 0.00 | 0.18 | 0.18 | 44 | 1016.6 |
| 20260506033912 | 14 | 324 | 9.7 | 22.5 | 0.00 | 0.18 | 0.18 | 43 | 1016.2 |
| 20260506033412 | 14 | 212 | 11.3 | 20.9 | 0.00 | 0.18 | 0.18 | 43 | 1016.2 |
| 20260506032912 | 14 | 353 | 9.7 | 20.9 | 0.00 | 0.18 | 0.18 | 44 | 1016.2 |
| 20260506032647 | 14 | 320 | 9.7 | 19.3 | 0.00 | 0.18 | 0.18 | 44 | 1016.0 |
| 20260506031909 | 14 | 293 | 9.7 | 22.5 | 0.00 | 0.18 | 0.18 | 44 | 1016.0 |
| 20260506031409 | 14 | 260 | 9.7 | 22.5 | 0.00 | 0.18 | 0.18 | 44 | 1015.9 |
| 20260506030910 | 15 | 347 | 9.7 | 24.1 | 0.00 | 0.18 | 0.18 | 44 | 1015.8 |
| 20260506030410 | 15 | 348 | 6.4 | 24.1 | 0.00 | 0.18 | 0.18 | 45 | 1015.7 |
| 20260506030146 | 15 | 309 | 6.4 | 19.3 | 0.00 | 0.18 | 0.18 | 45 | 1015.5 |
| 20260506025409 | 15 | 308 | 6.4 | 19.3 | 0.00 | 0.18 | 0.18 | 45 | 1015.5 |
| 20260506024910 | 15 | 160 | 8.0 | 22.5 | 0.00 | 0.18 | 0.18 | 45 | 1015.5 |
| 20260506024410 | 15 | 187 | 12.9 | 25.7 | 0.00 | 0.18 | 0.18 | 44 | 1015.4 |
| 20260506024143 | 15 | 335 | 14.5 | 29.0 | 0.00 | 0.18 | 0.18 | 44 | 1015.3 |
| 20260506023408 | 15 | 18 | 16.1 | 29.0 | 0.00 | 0.18 | 0.18 | 44 | 1015.5 |
| 20260506022908 | 15 | 346 | 12.9 | 27.4 | 0.00 | 0.18 | 0.18 | 43 | 1015.2 |
| 20260506022410 | 15 | 17 | 11.3 | 24.1 | 0.00 | 0.18 | 0.18 | 43 | 1015.1 |
| 20260506021908 | 15 | 344 | 11.3 | 25.7 | 0.00 | 0.18 | 0.18 | 43 | 1015.1 |
| 20260506021409 | 16 | 353 | 14.5 | 35.4 | 0.00 | 0.18 | 0.18 | 42 | 1015.0 |
| 20260506020905 | 16 | 15 | 16.1 | 35.4 | 0.00 | 0.18 | 0.18 | 42 | 1014.8 |
| 20260506020406 | 16 | 343 | 14.5 | 32.2 | 0.00 | 0.18 | 0.18 | 42 | 1014.8 |
| 20260506015905 | 16 | 314 | 12.9 | 30.6 | 0.00 | 0.18 | 0.18 | 42 | 1014.8 |
| 20260506015638 | 16 | 358 | 9.7 | 24.1 | 0.00 | 0.18 | 0.18 | 41 | 1014.6 |
| 20260506015138 | 16 | 205 | 6.4 | 19.3 | 0.00 | 0.18 | 0.18 | 42 | 1014.6 |
| 20260506014406 | 16 | 266 | 8.0 | 25.7 | 0.00 | 0.18 | 0.18 | 42 | 1014.5 |
| 20260506013906 | 16 | 100 | 8.0 | 25.7 | 0.00 | 0.18 | 0.18 | 41 | 1014.5 |
| 20260506013406 | 17 | 189 | 11.3 | 29.0 | 0.00 | 0.18 | 0.18 | 40 | 1014.5 |
| 20260506012901 | 17 | 335 | 12.9 | 29.0 | 0.00 | 0.18 | 0.18 | 41 | 1014.6 |
| 20260506012400 | 17 | 19 | 14.5 | 29.0 | 0.00 | 0.18 | 0.18 | 41 | 1014.4 |
| 20260506011900 | 18 | 348 | 11.3 | 29.0 | 0.00 | 0.18 | 0.18 | 39 | 1014.3 |
| 20260506011634 | 18 | 283 | 8.0 | 22.5 | 0.00 | 0.18 | 0.18 | 40 | 1014.3 |
| 20260506011538 | 18 | 32 | 11.3 | 27.4 | 0.00 | 0.18 | 0.18 | 38 | 1014.0 |
| 20260506010400 | 18 | 328 | 11.3 | 27.4 | 0.00 | 0.18 | 0.18 | 39 | 1014.0 |
| 20260506005902 | 18 | 296 | 12.9 | 33.8 | 0.00 | 0.18 | 0.18 | 39 | 1014.0 |
| 20260506005629 | 18 | 337 | 14.5 | 33.8 | 0.00 | 0.18 | 0.18 | 39 | 1014.0 |
| 20260506005535 | 18 | 331 | 12.9 | 30.6 | 0.00 | 0.18 | 0.18 | 38 | 1013.9 |
| 20260506004358 | 19 | 7 | 12.9 | 30.6 | 0.00 | 0.18 | 0.18 | 39 | 1014.0 |
| 20260506003856 | 18 | 10 | 9.7 | 19.3 | 0.00 | 0.18 | 0.18 | 38 | 1013.9 |
| 20260506003356 | 19 | 239 | 8.0 | 19.3 | 0.00 | 0.18 | 0.18 | 38 | 1013.9 |
| 20260506002857 | 18 | 17 | 8.0 | 25.7 | 0.00 | 0.18 | 0.18 | 38 | 1013.9 |
| 20260506002351 | 19 | 157 | 8.0 | 25.7 | 0.00 | 0.18 | 0.18 | 37 | 1013.8 |
| 20260506001842 | 18 | 52 | 11.3 | 25.7 | 0.00 | 0.18 | 0.18 | 39 | 1013.9 |
| 20260506001342 | 18 | 187 | 12.9 | 30.6 | 0.00 | 0.18 | 0.18 | 38 | 1013.7 |
| 20260506000844 | 18 | 279 | 14.5 | 30.6 | 0.00 | 0.18 | 0.18 | 39 | 1013.7 |
| 20260506000342 | 18 | 309 | 11.3 | 30.6 | 0.00 | 0.18 | 0.18 | 37 | 1013.7 |
| 20260505235840 | 18 | 203 | 11.3 | 27.4 | 0.00 | 0.18 | 0.18 | 37 | 1013.7 |
| 20260505235342 | 18 | 114 | 11.3 | 35.4 | 0.00 | 0.18 | 0.18 | 37 | 1013.7 |
| 20260505234838 | 18 | 154 | 16.1 | 49.9 | 0.00 | 0.18 | 0.18 | 37 | 1013.5 |
| 20260505234339 | 18 | 129 | 16.1 | 49.9 | 0.00 | 0.18 | 0.18 | 36 | 1013.5 |
| 20260505233840 | 18 | 146 | 17.7 | 45.1 | 0.00 | 0.18 | 0.18 | 38 | 1013.3 |
| 20260505233338 | 18 | 259 | 19.3 | 45.1 | 0.00 | 0.18 | 0.18 | 37 | 1013.9 |
| 20260505232839 | 18 | 142 | 12.9 | 43.5 | 0.00 | 0.18 | 0.18 | 36 | 1013.7 |
| 20260505232339 | 19 | 144 | 11.3 | 27.4 | 0.00 | 0.18 | 0.18 | 37 | 1013.3 |
| 20260505231842 | 19 | 2 | 11.3 | 27.4 | 0.00 | 0.18 | 0.18 | 38 | 1013.3 |
| 20260505231342 | 19 | 325 | 17.7 | 49.9 | 0.00 | 0.18 | 0.18 | 37 | 1013.4 |
| 20260505230835 | 18 | 108 | 17.7 | 49.9 | 0.00 | 0.18 | 0.18 | 38 | 1013.5 |
| 20260505230558 | 18 | 223 | 17.7 | 37.0 | 0.00 | 0.18 | 0.18 | 38 | 1013.7 |
| 20260505225820 | 18 | 183 | 16.1 | 37.0 | 0.00 | 0.18 | 0.18 | 38 | 1013.9 |
| 20260505225314 | 19 | 153 | 11.3 | 24.1 | 0.00 | 0.18 | 0.18 | 36 | 1013.7 |
| 20260505224804 | 19 | 23 | 12.9 | 37.0 | 0.00 | 0.18 | 0.18 | 35 | 1013.7 |
| 20260505224257 | 19 | 206 | 11.3 | 37.0 | 0.00 | 0.18 | 0.18 | 36 | 1013.7 |
| 20260505223751 | 19 | 158 | 14.5 | 38.6 | 0.00 | 0.18 | 0.18 | 36 | 1013.8 |
| 20260505223241 | 19 | 325 | 14.5 | 38.6 | 0.00 | 0.18 | 0.18 | 35 | 1014.0 |
| 20260505222736 | 20 | 294 | 12.9 | 33.8 | 0.00 | 0.18 | 0.18 | 37 | 1013.9 |
| 20260505222229 | 20 | 348 | 12.9 | 32.2 | 0.00 | 0.18 | 0.18 | 34 | 1013.9 |
| 20260505221720 | 20 | 276 | 12.9 | 30.6 | 0.00 | 0.18 | 0.18 | 35 | 1014.1 |
| 20260505221214 | 20 | 110 | 9.7 | 27.4 | 0.00 | 0.18 | 0.18 | 35 | 1014.0 |
| 20260505220708 | 20 | 266 | 8.0 | 17.7 | 0.00 | 0.18 | 0.18 | 37 | 1014.3 |
| 20260505220158 | 20 | 314 | 11.3 | 30.6 | 0.00 | 0.18 | 0.18 | 36 | 1014.4 |
| 20260505215652 | 20 | 61 | 11.3 | 30.6 | 0.00 | 0.18 | 0.18 | 35 | 1014.0 |
| 20260505215154 | 19 | 300 | 8.0 | 29.0 | 0.00 | 0.18 | 0.18 | 37 | 1014.3 |
| 20260505214646 | 19 | 273 | 8.0 | 24.1 | 0.00 | 0.18 | 0.18 | 36 | 1014.3 |
| 20260505214146 | 19 | 262 | 8.0 | 24.1 | 0.00 | 0.18 | 0.18 | 37 | 1014.4 |
| 20260505213647 | 19 | 164 | 8.0 | 29.0 | 0.00 | 0.18 | 0.18 | 38 | 1014.5 |
| 20260505213147 | 19 | 295 | 12.9 | 37.0 | 0.00 | 0.18 | 0.18 | 38 | 1014.7 |
| 20260505212646 | 18 | 172 | 12.9 | 37.0 | 0.00 | 0.18 | 0.18 | 37 | 1014.6 |
| 20260505212146 | 19 | 118 | 12.9 | 35.4 | 0.00 | 0.18 | 0.18 | 35 | 1014.6 |
| 20260505211646 | 19 | 316 | 16.1 | 35.4 | 0.00 | 0.18 | 0.18 | 36 | 1014.8 |
| 20260505211150 | 18 | 154 | 17.7 | 38.6 | 0.00 | 0.18 | 0.18 | 36 | 1014.8 |
| 20260505210917 | 18 | 191 | 12.9 | 38.6 | 0.00 | 0.18 | 0.18 | 37 | 1014.8 |
| 20260505210146 | 18 | 164 | 9.7 | 24.1 | 0.00 | 0.18 | 0.18 | 39 | 1014.8 |
| 20260505205646 | 18 | 3 | 14.5 | 37.0 | 0.00 | 0.18 | 0.18 | 40 | 1014.8 |
| 20260505205146 | 18 | 181 | 19.3 | 37.0 | 0.00 | 0.18 | 0.18 | 38 | 1015.1 |
| 20260505204647 | 18 | 187 | 20.9 | 40.2 | 0.00 | 0.18 | 0.18 | 36 | 1015.8 |
| 20260505204141 | 18 | 338 | 19.3 | 40.2 | 0.00 | 0.18 | 0.18 | 36 | 1015.3 |
| 20260505203636 | 18 | 106 | 14.5 | 40.2 | 0.00 | 0.18 | 0.18 | 39 | 1015.1 |
| 20260505203137 | 18 | 148 | 11.3 | 30.6 | 0.00 | 0.18 | 0.18 | 42 | 1015.3 |
| 20260505202638 | 17 | 85 | 12.9 | 40.2 | 0.00 | 0.18 | 0.18 | 44 | 1015.2 |
| 20260505202137 | 17 | 323 | 14.5 | 40.2 | 0.00 | 0.18 | 0.18 | 47 | 1015.4 |
| 20260505201636 | 17 | 343 | 14.5 | 37.0 | 0.00 | 0.18 | 0.18 | 48 | 1015.4 |
| 20260505201135 | 17 | 108 | 16.1 | 37.0 | 0.00 | 0.18 | 0.18 | 46 | 1016.0 |
| 20260505200636 | 17 | 140 | 12.9 | 35.4 | 0.00 | 0.18 | 0.18 | 49 | 1015.7 |
| 20260505200137 | 18 | 125 | 6.4 | 17.7 | 0.00 | 0.18 | 0.18 | 49 | 1015.8 |
| 20260505195637 | 17 | 166 | 8.0 | 17.7 | 0.00 | 0.18 | 0.18 | 53 | 1015.8 |
| 20260505195135 | 16 | 179 | 8.0 | 17.7 | 0.00 | 0.18 | 0.18 | 55 | 1016.0 |
| 20260505194636 | 16 | 341 | 6.4 | 17.7 | 0.00 | 0.18 | 0.18 | 53 | 1016.0 |
| 20260505194137 | 16 | 304 | 6.4 | 17.7 | 0.00 | 0.18 | 0.18 | 55 | 1016.1 |
| 20260505193636 | 16 | 298 | 6.4 | 17.7 | 0.00 | 0.18 | 0.18 | 57 | 1016.2 |
| 20260505193140 | 16 | 288 | 8.0 | 19.3 | 0.00 | 0.18 | 0.18 | 57 | 1016.2 |
| 20260505192634 | 16 | 232 | 8.0 | 20.9 | 0.00 | 0.18 | 0.18 | 58 | 1016.2 |
| 20260505192125 | 16 | 350 | 8.0 | 19.3 | 0.00 | 0.18 | 0.18 | 56 | 1016.5 |
| 20260505191623 | 16 | 325 | 11.3 | 25.7 | 0.00 | 0.18 | 0.18 | 55 | 1016.5 |
| 20260505191129 | 17 | 315 | 11.3 | 25.7 | 0.00 | 0.18 | 0.18 | 57 | 1016.4 |
| 20260505190627 | 16 | 334 | 9.7 | 25.7 | 0.00 | 0.18 | 0.18 | 56 | 1016.5 |
| 20260505190123 | 16 | 314 | 9.7 | 22.5 | 0.00 | 0.18 | 0.18 | 56 | 1016.6 |
| 20260505185624 | 16 | 90 | 9.7 | 22.5 | 0.00 | 0.18 | 0.18 | 55 | 1016.7 |
| 20260505185124 | 17 | 237 | 9.7 | 22.5 | 0.00 | 0.18 | 0.18 | 56 | 1016.6 |
| 20260505184624 | 17 | 18 | 9.7 | 22.5 | 0.00 | 0.18 | 0.18 | 55 | 1016.7 |
| 20260505184124 | 16 | 285 | 9.7 | 22.5 | 0.00 | 0.18 | 0.18 | 58 | 1016.6 |
| 20260505183856 | 16 | 291 | 8.0 | 19.3 | 0.00 | 0.18 | 0.18 | 60 | 1016.8 |
| 20260505183124 | 16 | 346 | 6.4 | 17.7 | 0.00 | 0.18 | 0.18 | 58 | 1016.8 |
| 20260505182622 | 16 | 235 | 6.4 | 12.9 | 0.00 | 0.18 | 0.18 | 61 | 1016.8 |
| 20260505182123 | 15 | 32 | 6.4 | 12.9 | 0.00 | 0.18 | 0.18 | 61 | 1016.8 |
| 20260505181855 | 15 | 321 | 6.4 | 17.7 | 0.00 | 0.18 | 0.18 | 66 | 1017.2 |
| 20260505181116 | 15 | 227 | 11.3 | 35.4 | 0.00 | 0.18 | 0.18 | 63 | 1017.2 |
| 20260505180614 | 15 | 125 | 9.7 | 35.4 | 0.00 | 0.18 | 0.18 | 63 | 1017.0 |
| 20260505180344 | 15 | 281 | 6.4 | 19.3 | 0.00 | 0.18 | 0.18 | 65 | 1017.1 |
| 20260505175851 | 14 | 165 | 8.0 | 22.5 | 0.00 | 0.18 | 0.18 | 65 | 1017.0 |
| 20260505175116 | 15 | 314 | 8.0 | 22.5 | 0.00 | 0.18 | 0.18 | 66 | 1017.1 |
| 20260505174619 | 13 | 46 | 14.5 | 33.8 | 0.00 | 0.18 | 0.18 | 66 | 1016.7 |
| 20260505174118 | 13 | 146 | 14.5 | 33.8 | 0.00 | 0.18 | 0.18 | 67 | 1016.7 |
| 20260505173849 | 14 | 145 | 9.7 | 27.4 | 0.00 | 0.18 | 0.18 | 66 | 1016.8 |
| 20260505173119 | 14 | 279 | 12.9 | 30.6 | 0.00 | 0.18 | 0.18 | 67 | 1016.8 |
| 20260505172616 | 13 | 231 | 11.3 | 30.6 | 0.00 | 0.18 | 0.18 | 66 | 1016.6 |
| 20260505172114 | 13 | 248 | 8.0 | 27.4 | 0.00 | 0.18 | 0.18 | 68 | 1016.6 |
| 20260505171615 | 14 | 181 | 9.7 | 27.4 | 0.00 | 0.18 | 0.18 | 65 | 1017.0 |
| 20260505171112 | 14 | 300 | 8.0 | 24.1 | 0.00 | 0.18 | 0.18 | 67 | 1016.7 |
| 20260505170613 | 15 | 140 | 8.0 | 17.7 | 0.00 | 0.18 | 0.18 | 66 | 1017.0 |
| 20260505170345 | 14 | 147 | 9.7 | 29.0 | 0.00 | 0.18 | 0.18 | 69 | 1016.7 |
| 20260505165609 | 13 | 206 | 16.1 | 38.6 | 0.00 | 0.18 | 0.18 | 69 | 1016.7 |
| 20260505165111 | 13 | 148 | 19.3 | 46.7 | 0.00 | 0.18 | 0.18 | 69 | 1016.7 |
| 20260505164611 | 13 | 160 | 19.3 | 46.7 | 0.00 | 0.18 | 0.18 | 67 | 1016.5 |
| 20260505164110 | 13 | 165 | 17.7 | 40.2 | 0.00 | 0.18 | 0.18 | 69 | 1016.6 |
| 20260505163610 | 13 | 177 | 9.7 | 37.0 | 0.00 | 0.18 | 0.18 | 69 | 1016.6 |
| 20260505163109 | 13 | 199 | 6.4 | 33.8 | 0.00 | 0.18 | 0.18 | 69 | 1016.6 |
| 20260505162611 | 13 | 343 | 6.4 | 33.8 | 0.00 | 0.18 | 0.18 | 69 | 1016.5 |
| 20260505162109 | 12 | 200 | 8.0 | 22.5 | 0.00 | 0.18 | 0.18 | 71 | 1016.5 |
| 20260505161609 | 12 | 54 | 9.7 | 22.5 | 0.00 | 0.18 | 0.18 | 71 | 1016.6 |
| 20260505161347 | 12 | 320 | 6.4 | 22.5 | 0.00 | 0.18 | 0.18 | 74 | 1016.7 |
| 20260505160611 | 12 | 140 | 6.4 | 22.5 | 0.00 | 0.18 | 0.18 | 70 | 1016.6 |
| 20260505160109 | 12 | 4 | 6.4 | 19.3 | 0.00 | 0.18 | 0.18 | 70 | 1016.8 |
| 20260505153107 | 11 | 4 | 6.4 | 16.1 | 0.00 | 0.18 | 0.18 | 72 | 1016.6 |
| 20260505152842 | 11 | 11 | 6.4 | 16.1 | 0.00 | 0.18 | 0.18 | 75 | 1016.5 |
| 20260505152107 | 11 | 10 | 6.4 | 25.7 | 0.00 | 0.18 | 0.18 | 74 | 1016.2 |
| 20260505151606 | 11 | 351 | 8.0 | 25.7 | 0.00 | 0.18 | 0.18 | 76 | 1016.2 |